createdAt,value
2018-12-06T00:00:54.917Z,85.40
2018-12-06T00:03:21.777Z,85.40
2018-12-06T00:05:48.665Z,85.70
2018-12-06T00:08:16.843Z,86.30
2018-12-06T00:10:43.800Z,86.20
2018-12-06T00:13:10.734Z,86.50
2018-12-06T00:15:37.647Z,86.60
2018-12-06T00:18:04.589Z,86.40
2018-12-06T00:20:31.479Z,86.70
2018-12-06T00:22:58.382Z,87.20
2018-12-06T00:25:25.246Z,87.50
2018-12-06T00:27:52.225Z,87.70
2018-12-06T00:30:36.009Z,86.90
2018-12-06T00:33:03.602Z,86.70
2018-12-06T00:35:30.578Z,87.30
2018-12-06T00:37:57.466Z,87.80
2018-12-06T00:40:24.400Z,88.00
2018-12-06T00:42:51.282Z,88.20
2018-12-06T00:45:18.161Z,88.30
2018-12-06T00:47:45.037Z,88.00
2018-12-06T00:50:11.925Z,88.00
2018-12-06T00:52:38.794Z,88.10
2018-12-06T00:55:05.666Z,88.30
2018-12-06T00:57:32.550Z,88.50
2018-12-06T00:59:59.426Z,88.70
2018-12-06T01:02:26.306Z,88.50
2018-12-06T01:04:53.216Z,88.30
2018-12-06T01:07:20.182Z,88.60
2018-12-06T01:09:47.041Z,88.80
2018-12-06T01:12:13.932Z,88.70
2018-12-06T01:14:40.785Z,88.90
2018-12-06T01:17:08.710Z,89.10
2018-12-06T01:19:36.037Z,89.20
2018-12-06T01:22:03.833Z,89.30
2018-12-06T01:24:30.725Z,89.30
2018-12-06T01:26:57.596Z,89.30
2018-12-06T01:29:24.534Z,88.90
2018-12-06T01:31:51.393Z,88.40
2018-12-06T01:34:18.286Z,88.10
2018-12-06T01:36:45.162Z,88.50
2018-12-06T01:39:12.052Z,88.50
2018-12-06T01:41:38.981Z,88.20
2018-12-06T01:44:05.982Z,88.30
2018-12-06T01:46:32.862Z,88.60
2018-12-06T01:48:59.721Z,88.80
2018-12-06T01:51:26.658Z,89.00
2018-12-06T01:53:53.501Z,89.20
2018-12-06T01:56:20.388Z,88.90
2018-12-06T01:58:47.254Z,89.30
2018-12-06T02:01:14.138Z,89.20
2018-12-06T02:03:41.032Z,89.30
2018-12-06T02:06:07.919Z,89.00
2018-12-06T02:08:34.787Z,88.80
2018-12-06T02:11:01.678Z,88.90
2018-12-06T02:13:28.546Z,88.30
2018-12-06T02:15:55.427Z,88.70
2018-12-06T02:18:22.298Z,89.00
2018-12-06T02:20:49.177Z,88.90
2018-12-06T02:23:16.067Z,88.80
2018-12-06T02:25:42.954Z,88.70
2018-12-06T02:28:09.879Z,88.80
2018-12-06T02:30:36.799Z,88.60
2018-12-06T02:33:03.686Z,88.70
2018-12-06T02:35:30.579Z,88.70
2018-12-06T02:37:57.445Z,89.00
2018-12-06T02:40:24.302Z,88.70
2018-12-06T02:42:51.160Z,88.70
2018-12-06T02:45:18.006Z,88.90
2018-12-06T02:47:44.916Z,89.00
2018-12-06T02:50:11.895Z,89.00
2018-12-06T02:52:38.817Z,88.90
2018-12-06T02:55:05.816Z,88.70
2018-12-06T02:57:32.673Z,88.70
2018-12-06T02:59:59.522Z,88.70
2018-12-06T03:02:26.435Z,88.90
2018-12-06T03:04:53.382Z,88.60
2018-12-06T03:07:20.303Z,88.30
2018-12-06T03:09:47.152Z,88.70
2018-12-06T03:12:14.034Z,88.70
2018-12-06T03:14:40.929Z,88.70
2018-12-06T03:17:07.783Z,88.50
2018-12-06T03:19:34.670Z,88.60
2018-12-06T03:22:01.599Z,88.50
2018-12-06T03:24:28.432Z,88.40
2018-12-06T03:26:55.331Z,88.40
2018-12-06T03:29:22.242Z,88.20
2018-12-06T03:31:49.176Z,88.60
2018-12-06T03:34:16.094Z,88.40
2018-12-06T03:36:43.062Z,88.40
2018-12-06T03:39:09.894Z,88.30
2018-12-06T03:41:36.823Z,88.20
2018-12-06T03:44:03.745Z,88.20
2018-12-06T03:46:30.675Z,88.50
2018-12-06T03:48:57.587Z,88.40
2018-12-06T03:51:24.440Z,88.50
2018-12-06T03:53:51.356Z,88.50
2018-12-06T03:56:18.209Z,88.70
2018-12-06T03:58:45.067Z,88.70
2018-12-06T04:01:11.896Z,88.70
2018-12-06T04:03:38.818Z,88.90
2018-12-06T04:06:05.752Z,88.60
2018-12-06T04:08:32.609Z,88.50
2018-12-06T04:10:59.560Z,88.40
2018-12-06T04:13:26.412Z,88.40
2018-12-06T04:15:53.325Z,88.10
2018-12-06T04:18:20.233Z,88.20
2018-12-06T04:20:47.156Z,88.40
2018-12-06T04:23:14.009Z,88.40
2018-12-06T04:25:40.920Z,88.30
2018-12-06T04:28:07.772Z,88.10
2018-12-06T04:30:34.615Z,88.40
2018-12-06T04:33:01.469Z,88.40
2018-12-06T04:35:28.337Z,88.50
2018-12-06T04:37:55.164Z,88.70
2018-12-06T04:40:22.016Z,88.80
2018-12-06T04:42:48.856Z,88.70
2018-12-06T04:45:15.793Z,88.70
2018-12-06T04:47:42.765Z,88.70
2018-12-06T04:50:09.652Z,88.50
2018-12-06T04:52:36.485Z,88.30
2018-12-06T04:55:03.568Z,88.40
2018-12-06T04:57:30.424Z,88.40
2018-12-06T04:59:57.261Z,87.60
2018-12-06T05:02:24.154Z,87.50
2018-12-06T05:04:51.068Z,87.90
2018-12-06T05:07:17.975Z,88.50
2018-12-06T05:09:44.799Z,88.80
2018-12-06T05:12:11.640Z,87.80
2018-12-06T05:14:38.491Z,88.30
2018-12-06T05:17:05.406Z,88.60
2018-12-06T05:19:32.295Z,88.70
2018-12-06T05:21:59.300Z,89.00
2018-12-06T05:24:26.197Z,89.10
2018-12-06T05:26:53.131Z,89.00
2018-12-06T05:29:20.044Z,89.30
2018-12-06T05:31:46.892Z,89.60
2018-12-06T05:34:13.725Z,89.30
2018-12-06T05:36:40.566Z,89.00
2018-12-06T05:39:07.602Z,89.00
2018-12-06T05:41:34.459Z,88.70
2018-12-06T05:44:01.302Z,89.00
2018-12-06T05:46:28.245Z,89.10
2018-12-06T05:48:55.109Z,88.90
2018-12-06T05:51:21.940Z,89.10
2018-12-06T05:53:48.876Z,89.00
2018-12-06T05:56:15.792Z,88.90
2018-12-06T05:58:42.656Z,88.90
2018-12-06T06:01:09.533Z,88.70
2018-12-06T06:03:36.373Z,89.00
2018-12-06T06:06:03.296Z,88.90
2018-12-06T06:08:30.229Z,88.70
2018-12-06T06:10:57.196Z,88.60
2018-12-06T06:13:24.048Z,88.90
2018-12-06T06:15:50.906Z,89.00
2018-12-06T06:18:17.817Z,89.00
2018-12-06T06:20:44.676Z,89.00
2018-12-06T06:23:11.527Z,88.60
2018-12-06T06:25:38.453Z,88.70
2018-12-06T06:28:05.295Z,88.70
2018-12-06T06:30:32.152Z,88.70
2018-12-06T06:32:59.072Z,88.70
2018-12-06T06:35:26.032Z,88.50
2018-12-06T06:37:52.878Z,88.10
2018-12-06T06:40:19.840Z,87.80
2018-12-06T06:42:46.673Z,87.80
2018-12-06T06:45:13.580Z,87.70
2018-12-06T06:47:40.431Z,87.80
2018-12-06T06:50:08.017Z,88.10
2018-12-06T06:52:34.939Z,88.20
2018-12-06T06:55:01.812Z,87.70
2018-12-06T06:57:28.713Z,87.90
2018-12-06T06:59:55.559Z,87.70
2018-12-06T07:02:22.494Z,87.70
2018-12-06T07:04:49.441Z,87.90
2018-12-06T07:07:16.312Z,88.40
2018-12-06T07:09:43.188Z,87.80
2018-12-06T07:12:10.044Z,87.90
2018-12-06T07:14:36.882Z,88.00
2018-12-06T07:17:04.176Z,88.10
2018-12-06T07:19:31.169Z,88.20
2018-12-06T07:21:58.023Z,88.30
2018-12-06T07:24:24.894Z,88.50
2018-12-06T07:26:51.810Z,88.30
2018-12-06T07:29:18.730Z,88.40
2018-12-06T07:31:45.692Z,88.30
2018-12-06T07:34:12.584Z,88.10
2018-12-06T07:36:39.578Z,88.20
2018-12-06T07:39:06.496Z,88.40
2018-12-06T07:41:33.341Z,88.40
2018-12-06T07:44:00.185Z,88.40
2018-12-06T07:46:27.064Z,88.40
2018-12-06T07:48:59.944Z,87.80
2018-12-06T07:51:26.785Z,87.70
2018-12-06T07:53:53.660Z,87.70
2018-12-06T07:56:20.552Z,87.80
2018-12-06T07:58:47.478Z,87.80
2018-12-06T08:01:14.332Z,87.70
2018-12-06T08:03:41.215Z,87.60
2018-12-06T08:06:08.048Z,87.60
2018-12-06T08:08:34.906Z,87.50
2018-12-06T08:11:01.848Z,86.80
2018-12-06T08:13:28.784Z,87.00
2018-12-06T08:15:55.657Z,87.30
2018-12-06T08:18:22.540Z,87.30
2018-12-06T08:20:49.418Z,87.00
2018-12-06T08:23:16.276Z,86.70
2018-12-06T08:25:43.215Z,86.40
2018-12-06T08:28:10.082Z,86.90
2018-12-06T08:30:36.922Z,87.10
2018-12-06T08:33:03.812Z,87.00
2018-12-06T08:35:30.650Z,87.60
2018-12-06T08:37:57.581Z,87.70
2018-12-06T08:40:24.444Z,87.60
2018-12-06T08:42:51.333Z,87.80
2018-12-06T08:45:18.164Z,87.90
2018-12-06T08:47:45.011Z,88.10
2018-12-06T08:50:11.904Z,87.40
2018-12-06T08:52:38.748Z,87.60
2018-12-06T08:55:05.728Z,87.50
2018-12-06T08:57:32.640Z,87.80
2018-12-06T08:59:59.512Z,87.80
2018-12-06T09:02:26.384Z,87.50
2018-12-06T09:04:53.249Z,87.80
2018-12-06T09:07:20.172Z,87.70
2018-12-06T09:09:47.021Z,86.80
2018-12-06T09:12:13.949Z,86.50
2018-12-06T09:14:40.785Z,85.80
2018-12-06T09:17:07.648Z,86.20
2018-12-06T09:19:34.560Z,86.30
2018-12-06T09:22:01.406Z,86.60
2018-12-06T09:24:28.263Z,86.60
2018-12-06T09:26:58.647Z,86.20
2018-12-06T09:29:23.941Z,85.90
2018-12-06T09:31:50.868Z,86.10
2018-12-06T09:34:17.720Z,86.20
2018-12-06T09:36:44.556Z,86.10
2018-12-06T09:39:11.446Z,86.10
2018-12-06T09:41:38.345Z,86.00
2018-12-06T09:44:05.240Z,86.10
2018-12-06T09:46:32.220Z,85.90
2018-12-06T09:48:59.054Z,85.80
2018-12-06T09:51:25.994Z,85.90
2018-12-06T09:53:52.825Z,85.80
2018-12-06T09:56:19.715Z,85.90
2018-12-06T09:58:46.638Z,86.10
2018-12-06T10:01:13.530Z,86.00
2018-12-06T10:03:40.396Z,85.90
2018-12-06T10:06:07.249Z,86.20
2018-12-06T10:08:34.128Z,86.20
2018-12-06T10:11:00.972Z,86.60
2018-12-06T10:13:27.908Z,85.70
2018-12-06T10:15:54.755Z,85.90
2018-12-06T10:18:21.601Z,85.50
2018-12-06T10:20:48.576Z,85.90
2018-12-06T10:23:15.418Z,86.30
2018-12-06T10:25:42.269Z,86.10
2018-12-06T10:28:09.155Z,85.30
2018-12-06T10:30:36.028Z,85.90
2018-12-06T10:33:02.948Z,86.70
2018-12-06T10:35:29.801Z,86.30
2018-12-06T10:37:56.664Z,86.40
2018-12-06T10:40:23.502Z,86.70
2018-12-06T10:42:50.585Z,86.40
2018-12-06T10:45:17.446Z,87.00
2018-12-06T10:47:44.281Z,86.80
2018-12-06T10:50:11.145Z,86.30
2018-12-06T10:52:38.025Z,86.10
2018-12-06T10:55:04.945Z,85.80
2018-12-06T10:57:31.866Z,85.70
2018-12-06T10:59:58.825Z,85.10
2018-12-06T11:02:25.704Z,84.70
2018-12-06T11:04:53.253Z,84.50
2018-12-06T11:07:20.138Z,84.80
2018-12-06T11:09:47.035Z,84.00
2018-12-06T11:12:13.948Z,84.00
2018-12-06T11:14:40.804Z,83.70
2018-12-06T11:17:07.672Z,83.70
2018-12-06T11:19:34.627Z,83.20
2018-12-06T11:22:01.464Z,82.90
2018-12-06T11:24:28.354Z,82.60
2018-12-06T11:26:55.284Z,82.40
2018-12-06T11:29:22.159Z,82.80
2018-12-06T11:31:49.089Z,83.20
2018-12-06T11:34:16.051Z,83.80
2018-12-06T11:36:42.869Z,83.90
2018-12-06T11:39:09.784Z,83.80
2018-12-06T11:41:43.061Z,83.90
2018-12-06T11:44:05.584Z,84.30
2018-12-06T11:46:32.424Z,84.10
2018-12-06T11:48:59.286Z,84.40
2018-12-06T11:51:26.143Z,84.70
2018-12-06T11:53:53.155Z,85.10
2018-12-06T11:56:20.022Z,85.70
2018-12-06T11:58:46.892Z,86.30
2018-12-06T12:01:13.873Z,85.80
2018-12-06T12:03:40.785Z,85.60
2018-12-06T12:06:07.726Z,86.00
2018-12-06T12:08:34.571Z,86.10
2018-12-06T12:11:01.452Z,86.00
2018-12-06T12:13:28.299Z,85.30
2018-12-06T12:15:55.143Z,85.10
2018-12-06T12:18:22.051Z,85.10
2018-12-06T12:20:48.891Z,83.70
2018-12-06T12:23:16.120Z,82.80
2018-12-06T12:25:42.992Z,83.10
2018-12-06T12:28:09.828Z,83.40
2018-12-06T12:30:36.737Z,83.60
2018-12-06T12:33:03.567Z,83.90
2018-12-06T12:35:30.413Z,83.90
2018-12-06T12:37:57.265Z,83.60
2018-12-06T12:40:24.141Z,83.80
2018-12-06T12:42:50.998Z,84.70
2018-12-06T12:45:17.974Z,84.20
2018-12-06T12:47:44.869Z,84.60
2018-12-06T12:50:11.732Z,85.00
2018-12-06T12:52:38.570Z,85.50
2018-12-06T12:55:05.517Z,85.60
2018-12-06T12:57:32.369Z,86.30
2018-12-06T12:59:59.211Z,86.70
2018-12-06T13:02:26.192Z,86.50
2018-12-06T13:04:53.065Z,86.50
2018-12-06T13:07:19.958Z,86.30
2018-12-06T13:09:46.804Z,86.20
2018-12-06T13:12:13.640Z,86.20
2018-12-06T13:14:40.540Z,86.50
2018-12-06T13:17:07.388Z,86.80
2018-12-06T13:19:34.225Z,86.90
2018-12-06T13:22:46.673Z,87.00
2018-12-06T13:25:13.682Z,87.00
2018-12-06T13:27:40.593Z,86.50
2018-12-06T13:30:07.452Z,85.30
2018-12-06T13:32:34.334Z,84.90
2018-12-06T13:35:01.244Z,85.70
2018-12-06T13:37:28.132Z,86.20
2018-12-06T13:39:54.968Z,86.00
2018-12-06T13:42:23.677Z,85.70
2018-12-06T13:44:50.835Z,85.50
2018-12-06T13:47:17.776Z,85.40
2018-12-06T13:49:44.731Z,85.60
2018-12-06T13:52:11.568Z,85.30
2018-12-06T13:54:38.489Z,85.50
2018-12-06T13:57:05.327Z,85.40
2018-12-06T13:59:32.196Z,85.30
2018-12-06T14:01:59.041Z,85.20
2018-12-06T14:04:25.887Z,85.40
2018-12-06T14:06:52.832Z,85.00
2018-12-06T14:09:19.696Z,84.80
2018-12-06T14:11:46.535Z,84.80
2018-12-06T14:14:13.409Z,84.80
2018-12-06T14:16:40.285Z,84.80
2018-12-06T14:19:07.706Z,85.00
2018-12-06T14:21:34.553Z,85.60
2018-12-06T14:24:01.388Z,85.90
2018-12-06T14:26:28.257Z,85.90
2018-12-06T14:28:55.116Z,85.80
2018-12-06T14:31:21.948Z,85.90
2018-12-06T14:33:48.908Z,86.00
2018-12-06T14:36:15.791Z,86.20
2018-12-06T14:38:42.687Z,86.40
2018-12-06T14:41:09.507Z,86.20
2018-12-06T14:43:36.571Z,86.20
2018-12-06T14:46:03.493Z,86.10
2018-12-06T14:48:30.399Z,86.10
2018-12-06T14:50:57.233Z,86.20
2018-12-06T14:53:24.089Z,86.30
2018-12-06T14:55:50.909Z,86.20
2018-12-06T14:58:17.753Z,86.30
2018-12-06T15:00:44.612Z,86.40
2018-12-06T15:03:11.461Z,86.40
2018-12-06T15:05:38.303Z,86.50
2018-12-06T15:08:05.212Z,86.50
2018-12-06T15:10:32.185Z,86.50
2018-12-06T15:12:59.091Z,86.50
2018-12-06T15:15:25.939Z,86.70
2018-12-06T15:17:52.788Z,86.70
2018-12-06T15:20:19.644Z,86.80
2018-12-06T15:22:46.920Z,86.60
2018-12-06T15:25:13.771Z,86.70
2018-12-06T15:27:40.713Z,86.90
2018-12-06T15:30:07.837Z,87.10
2018-12-06T15:32:34.686Z,87.00
2018-12-06T15:35:01.611Z,87.10
2018-12-06T15:37:28.452Z,87.20
2018-12-06T15:39:55.288Z,87.80
2018-12-06T15:42:22.136Z,87.30
2018-12-06T15:44:49.036Z,87.10
2018-12-06T15:47:15.940Z,87.30
2018-12-06T15:49:42.788Z,87.40
2018-12-06T15:52:09.637Z,87.60
2018-12-06T15:54:36.504Z,87.10
2018-12-06T15:57:03.426Z,87.40
2018-12-06T15:59:30.257Z,87.80
2018-12-06T16:01:57.100Z,88.00
2018-12-06T16:04:23.936Z,87.90
2018-12-06T16:06:50.792Z,87.90
2018-12-06T16:09:17.624Z,88.30
2018-12-06T16:11:44.484Z,88.80
2018-12-06T16:14:11.319Z,88.70
2018-12-06T16:16:38.175Z,88.30
2018-12-06T16:19:05.044Z,88.40
2018-12-06T16:21:31.969Z,88.90
2018-12-06T16:23:58.824Z,89.10
2018-12-06T16:26:25.658Z,88.90
2018-12-06T16:28:52.612Z,89.00
2018-12-06T16:31:19.569Z,89.00
2018-12-06T16:33:46.420Z,89.00
2018-12-06T16:36:13.293Z,88.70
2018-12-06T16:38:40.136Z,88.50
2018-12-06T16:41:06.980Z,88.30
2018-12-06T16:43:33.825Z,88.50
2018-12-06T16:46:00.697Z,88.00
2018-12-06T16:48:27.625Z,87.30
2018-12-06T16:50:54.541Z,87.90
2018-12-06T16:53:21.541Z,87.50
2018-12-06T16:55:48.376Z,88.10
2018-12-06T16:58:15.235Z,88.80
2018-12-06T17:00:42.148Z,88.90
2018-12-06T17:03:09.020Z,88.70
2018-12-06T17:05:35.860Z,88.70
2018-12-06T17:08:02.844Z,88.70
2018-12-06T17:10:29.798Z,88.70
2018-12-06T17:12:56.694Z,88.00
2018-12-06T17:15:23.580Z,87.90
2018-12-06T17:17:50.441Z,88.00
2018-12-06T17:20:17.366Z,88.40
2018-12-06T17:22:44.313Z,88.40
2018-12-06T17:25:11.411Z,88.70
2018-12-06T17:27:38.259Z,88.70
2018-12-06T17:30:06.104Z,88.90
2018-12-06T17:32:32.939Z,89.00
2018-12-06T17:34:59.779Z,88.70
2018-12-06T17:37:26.635Z,88.90
2018-12-06T17:39:53.509Z,88.70
2018-12-06T17:42:20.483Z,89.10
2018-12-06T17:44:47.335Z,89.00
2018-12-06T17:47:14.276Z,89.30
2018-12-06T17:49:41.121Z,89.30
2018-12-06T17:52:07.993Z,89.30
2018-12-06T17:54:34.852Z,89.10
2018-12-06T17:57:01.672Z,89.20
2018-12-06T17:59:28.531Z,89.10
2018-12-06T18:01:55.399Z,89.10
2018-12-06T18:04:22.229Z,88.50
2018-12-06T18:06:49.116Z,88.50
2018-12-06T18:09:15.979Z,87.50
2018-12-06T18:11:42.811Z,87.40
2018-12-06T18:14:09.663Z,88.00
2018-12-06T18:16:36.584Z,88.80
2018-12-06T18:19:03.495Z,89.10
2018-12-06T18:21:30.517Z,89.20
2018-12-06T18:23:57.353Z,89.20
2018-12-06T18:26:24.204Z,89.40
2018-12-06T18:28:51.048Z,89.10
2018-12-06T18:31:17.906Z,88.80
2018-12-06T18:33:44.756Z,88.80
2018-12-06T18:36:11.656Z,88.90
2018-12-06T18:38:38.581Z,88.90
2018-12-06T18:41:05.452Z,88.80
2018-12-06T18:43:32.308Z,89.10
2018-12-06T18:45:59.247Z,89.20
2018-12-06T18:48:26.100Z,88.70
2018-12-06T18:50:53.039Z,88.80
2018-12-06T18:53:19.869Z,88.50
2018-12-06T18:55:46.748Z,88.70
2018-12-06T18:58:13.638Z,88.90
2018-12-06T19:00:40.556Z,89.10
2018-12-06T19:03:07.430Z,89.00
2018-12-06T19:05:34.302Z,88.80
2018-12-06T19:08:01.138Z,88.70
2018-12-06T19:10:28.080Z,88.80
2018-12-06T19:12:54.956Z,88.90
2018-12-06T19:15:21.917Z,88.90
2018-12-06T19:17:48.805Z,88.90
2018-12-06T19:20:15.648Z,88.70
2018-12-06T19:22:42.515Z,88.80
2018-12-06T19:25:09.416Z,89.10
2018-12-06T19:27:36.327Z,89.20
2018-12-06T19:30:05.864Z,89.10
2018-12-06T19:32:32.729Z,89.10
2018-12-06T19:34:59.562Z,88.60
2018-12-06T19:37:26.428Z,88.70
2018-12-06T19:39:53.285Z,88.70
2018-12-06T19:42:20.176Z,88.70
2018-12-06T19:44:47.062Z,88.90
2018-12-06T19:47:14.023Z,88.80
2018-12-06T19:49:40.878Z,88.90
2018-12-06T19:52:07.848Z,88.80
2018-12-06T19:54:34.684Z,88.70
2018-12-06T19:57:01.547Z,88.60
2018-12-06T19:59:28.504Z,88.60
2018-12-06T20:01:55.331Z,88.70
2018-12-06T20:04:22.274Z,88.80
2018-12-06T20:06:49.136Z,88.80
2018-12-06T20:09:16.104Z,88.90
2018-12-06T20:11:42.952Z,88.60
2018-12-06T20:14:09.875Z,88.70
2018-12-06T20:16:36.790Z,88.30
2018-12-06T20:19:03.652Z,88.50
2018-12-06T20:21:30.513Z,88.40
2018-12-06T20:23:57.346Z,87.90
2018-12-06T20:26:24.298Z,88.20
2018-12-06T20:28:51.207Z,88.10
2018-12-06T20:31:18.151Z,88.40
2018-12-06T20:33:45.052Z,88.20
2018-12-06T20:36:12.037Z,88.40
2018-12-06T20:38:38.936Z,88.30
2018-12-06T20:41:05.866Z,88.30
2018-12-06T20:43:32.740Z,88.20
2018-12-06T20:45:59.585Z,88.50
2018-12-06T20:48:26.451Z,88.40
2018-12-06T20:50:53.302Z,88.50
2018-12-06T20:53:20.158Z,88.30
2018-12-06T20:55:47.049Z,88.50
2018-12-06T20:58:15.171Z,88.60
2018-12-06T21:00:42.431Z,88.40
2018-12-06T21:03:09.287Z,88.50
2018-12-06T21:05:36.240Z,88.10
2018-12-06T21:08:03.190Z,88.30
2018-12-06T21:10:30.111Z,88.50
2018-12-06T21:12:57.069Z,88.50
2018-12-06T21:15:23.981Z,88.40
2018-12-06T21:17:50.853Z,88.40
2018-12-06T21:20:17.766Z,88.30
2018-12-06T21:22:44.618Z,88.30
2018-12-06T21:25:11.508Z,88.50
2018-12-06T21:27:38.353Z,88.20
2018-12-06T21:30:05.864Z,88.30
2018-12-06T21:32:32.728Z,88.40
2018-12-06T21:34:59.651Z,88.30
2018-12-06T21:37:26.555Z,88.20
2018-12-06T21:39:53.444Z,88.30
2018-12-06T21:42:20.297Z,88.60
2018-12-06T21:44:47.214Z,88.30
2018-12-06T21:47:14.096Z,88.50
2018-12-06T21:49:41.023Z,88.30
2018-12-06T21:52:07.877Z,88.40
2018-12-06T21:54:34.751Z,88.30
2018-12-06T21:57:01.621Z,88.50
2018-12-06T21:59:28.533Z,88.40
2018-12-06T22:02:04.938Z,88.20
2018-12-06T22:04:31.774Z,88.20
2018-12-06T22:06:58.702Z,88.10
2018-12-06T22:09:25.564Z,88.30
2018-12-06T22:11:52.396Z,88.50
2018-12-06T22:14:19.335Z,88.60
2018-12-06T22:16:46.194Z,88.80
2018-12-06T22:19:13.041Z,88.50
2018-12-06T22:21:39.903Z,88.50
2018-12-06T22:24:07.102Z,88.40
2018-12-06T22:26:33.943Z,88.40
2018-12-06T22:29:00.816Z,88.50
2018-12-06T22:31:27.682Z,88.10
2018-12-06T22:33:54.854Z,88.10
2018-12-06T22:36:21.716Z,88.20
2018-12-06T22:38:48.674Z,87.80
2018-12-06T22:41:15.608Z,88.10
2018-12-06T22:43:42.506Z,88.50
2018-12-06T22:46:09.364Z,88.10
2018-12-06T22:48:36.196Z,88.30
2018-12-06T22:51:03.113Z,88.40
2018-12-06T22:53:29.985Z,88.40
2018-12-06T22:55:56.858Z,88.20
2018-12-06T22:58:24.095Z,88.20
2018-12-06T23:00:51.520Z,88.30
2018-12-06T23:03:18.397Z,88.50
2018-12-06T23:05:45.294Z,88.40
2018-12-06T23:08:12.169Z,88.40
2018-12-06T23:10:39.100Z,88.30
2018-12-06T23:13:06.020Z,88.50
2018-12-06T23:15:32.904Z,88.60
2018-12-06T23:17:59.776Z,88.60
2018-12-06T23:20:26.657Z,88.50
2018-12-06T23:22:53.527Z,88.50
2018-12-06T23:25:20.460Z,88.40
2018-12-06T23:27:47.292Z,88.20
2018-12-06T23:30:14.168Z,88.30
2018-12-06T23:32:41.016Z,88.50
2018-12-06T23:35:07.940Z,88.50
2018-12-06T23:37:34.789Z,88.60
2018-12-06T23:40:01.965Z,88.70
2018-12-06T23:42:28.955Z,88.80
2018-12-06T23:44:55.836Z,89.10
2018-12-06T23:47:22.695Z,88.50
2018-12-06T23:49:49.676Z,88.60
2018-12-06T23:52:16.574Z,88.90
2018-12-06T23:54:43.518Z,89.00
2018-12-06T23:57:10.373Z,89.00
2018-12-06T23:59:37.300Z,88.90
